Terminal Aerodrome Forecast
Issued by NWS

Home | Current Version | Previous Version | Text Only | Print | Product List | Glossary On
Versions: 1 2 3 4 5 6 7 8 9 10 11 12
000
FTAK31 PAFA 211122
TAFAFA
TAF
PAFA 211122Z 2112/2218 VRB03KT P6SM FEW100 SCT200
     FM212200 VRB04KT P6SM VCSH SCT035 BKN050 OVC200
     FM220200 VRB04KT 6SM -SN BR SCT015 BKN025 OVC035
     FM220400 VRB04KT 1 1/2SM -SN BR BKN015 OVC025
     FM221000 25003KT 1SM -SN BR SCT007 BKN012 OVC020
     FM221600 28004KT 2SM -SN BR SCT007 BKN012 OVC020=

USA.gov is the U.S. government's official web portal to all federal, state and local government web resources and services.